createdAt,value
2023-05-06T00:01:59.619Z,2.83
2023-05-06T00:04:26.988Z,2.88
2023-05-06T00:06:54.265Z,2.92
2023-05-06T00:09:21.296Z,3.13
2023-05-06T00:11:47.923Z,3.25
2023-05-06T00:14:14.494Z,3.20
2023-05-06T00:16:41.258Z,3.08
2023-05-06T00:19:07.831Z,3.40
2023-05-06T00:21:34.366Z,3.40
2023-05-06T00:24:00.918Z,3.42
2023-05-06T00:26:27.617Z,3.50
2023-05-06T00:28:54.195Z,3.20
2023-05-06T00:31:21.928Z,3.80
2023-05-06T00:33:50.497Z,3.55
2023-05-06T00:36:17.469Z,3.25
2023-05-06T00:38:44.254Z,2.97
2023-05-06T00:41:10.873Z,3.50
2023-05-06T00:43:37.403Z,3.15
2023-05-06T00:46:05.498Z,3.20
2023-05-06T00:48:32.305Z,3.33
2023-05-06T00:50:59.175Z,3.45
2023-05-06T00:53:25.775Z,3.40
2023-05-06T00:55:52.573Z,3.38
2023-05-06T00:58:20.201Z,4.35
2023-05-06T01:00:46.934Z,4.30
2023-05-06T01:03:13.736Z,3.80
2023-05-06T01:06:04.178Z,4.05
2023-05-06T01:08:37.519Z,4.28
2023-05-06T01:11:16.104Z,3.85
2023-05-06T01:13:52.374Z,3.90
2023-05-06T01:16:23.521Z,3.85
2023-05-06T01:18:52.508Z,4.57
2023-05-06T01:21:19.678Z,4.10
2023-05-06T01:23:55.212Z,4.32
2023-05-06T01:26:23.078Z,3.95
2023-05-06T01:28:49.918Z,3.90
2023-05-06T01:31:32.145Z,3.70
2023-05-06T01:34:24.278Z,4.30
2023-05-06T01:36:57.723Z,4.20
2023-05-06T01:39:25.853Z,3.95
2023-05-06T01:41:55.922Z,5.00
2023-05-06T01:44:23.481Z,4.05
2023-05-06T01:49:34.921Z,4.57
2023-05-06T01:52:02.279Z,4.57
2023-05-06T01:54:28.909Z,4.32
2023-05-06T01:56:55.451Z,4.25
2023-05-06T01:59:22.061Z,4.18
2023-05-06T02:01:48.700Z,4.63
2023-05-06T02:04:15.485Z,4.50
2023-05-06T02:06:42.164Z,4.50
2023-05-06T02:09:08.755Z,4.53
2023-05-06T02:11:35.305Z,4.18
2023-05-06T02:14:02.152Z,4.50
2023-05-06T02:16:29.462Z,4.70
2023-05-06T02:18:56.190Z,4.50
2023-05-06T02:21:23.355Z,4.60
2023-05-06T02:23:50.128Z,4.25
2023-05-06T02:26:19.231Z,5.25
2023-05-06T02:28:45.886Z,5.30
2023-05-06T02:31:16.370Z,4.97
2023-05-06T02:33:44.985Z,5.30
2023-05-06T02:36:11.568Z,5.35
2023-05-06T02:38:38.096Z,5.72
2023-05-06T02:41:04.817Z,5.13
2023-05-06T02:43:31.413Z,5.40
2023-05-06T02:45:58.063Z,5.88
2023-05-06T02:48:24.686Z,5.72
2023-05-06T02:50:52.059Z,6.03
2023-05-06T02:53:18.569Z,5.68
2023-05-06T02:55:48.045Z,5.68
2023-05-06T02:58:14.766Z,6.03
2023-05-06T03:00:41.352Z,6.63
2023-05-06T03:03:07.977Z,6.72
2023-05-06T03:05:34.768Z,6.15
2023-05-06T03:08:02.520Z,5.78
2023-05-06T03:10:29.071Z,6.50
2023-05-06T03:12:55.652Z,6.13
2023-05-06T03:15:22.283Z,6.50
2023-05-06T03:17:48.871Z,6.40
2023-05-06T03:20:16.956Z,6.90
2023-05-06T03:22:43.672Z,6.05
2023-05-06T03:25:10.676Z,5.93
2023-05-06T03:27:38.091Z,6.55
2023-05-06T03:30:05.050Z,5.53
2023-05-06T03:32:31.912Z,6.00
2023-05-06T03:34:59.626Z,6.10
2023-05-06T03:37:26.309Z,6.43
2023-05-06T03:39:53.159Z,6.43
2023-05-06T03:42:19.686Z,6.40
2023-05-06T03:44:46.232Z,6.40
2023-05-06T03:47:12.781Z,6.53
2023-05-06T03:49:39.320Z,6.10
2023-05-06T03:52:06.008Z,6.30
2023-05-06T03:54:32.587Z,6.85
2023-05-06T03:56:59.166Z,6.75
2023-05-06T03:59:25.733Z,6.00
2023-05-06T04:01:53.027Z,6.53
2023-05-06T04:04:19.712Z,6.28
2023-05-06T04:06:46.469Z,6.38
2023-05-06T04:09:13.033Z,6.45
2023-05-06T04:11:39.729Z,6.78
2023-05-06T04:14:06.319Z,6.53
2023-05-06T04:16:32.932Z,6.35
2023-05-06T04:18:59.508Z,6.75
2023-05-06T04:21:26.082Z,7.03
2023-05-06T04:23:52.678Z,6.88
2023-05-06T04:26:19.233Z,7.35
2023-05-06T04:28:46.070Z,7.00
2023-05-06T04:31:14.599Z,6.22
2023-05-06T04:33:41.691Z,6.35
2023-05-06T04:36:08.831Z,6.65
2023-05-06T04:38:37.463Z,6.05
2023-05-06T04:41:07.033Z,6.13
2023-05-06T04:43:33.671Z,5.90
2023-05-06T04:46:01.845Z,5.65
2023-05-06T04:48:28.495Z,6.38
2023-05-06T04:50:55.002Z,7.10
2023-05-06T04:53:21.568Z,6.85
2023-05-06T04:55:48.082Z,6.28
2023-05-06T04:58:14.678Z,6.32
2023-05-06T05:00:41.304Z,6.88
2023-05-06T05:03:07.956Z,6.28
2023-05-06T05:05:34.888Z,6.18
2023-05-06T05:08:01.536Z,6.13
2023-05-06T05:10:28.823Z,6.28
2023-05-06T05:12:55.574Z,6.28
2023-05-06T05:15:22.251Z,6.25
2023-05-06T05:17:50.727Z,6.40
2023-05-06T05:20:18.016Z,6.10
2023-05-06T05:22:45.119Z,5.60
2023-05-06T05:25:11.933Z,5.70
2023-05-06T05:27:38.928Z,6.70
2023-05-06T05:30:06.475Z,5.93
2023-05-06T05:32:33.066Z,6.47
2023-05-06T05:34:59.710Z,5.78
2023-05-06T05:37:26.333Z,6.57
2023-05-06T05:39:53.006Z,5.57
2023-05-06T05:42:20.158Z,5.93
2023-05-06T05:44:46.815Z,5.82
2023-05-06T05:47:17.772Z,5.40
2023-05-06T05:49:44.454Z,6.22
2023-05-06T05:52:11.376Z,6.20
2023-05-06T05:54:37.952Z,6.43
2023-05-06T05:57:04.496Z,5.95
2023-05-06T05:59:31.702Z,5.78
2023-05-06T06:01:58.545Z,5.75
2023-05-06T06:04:25.688Z,5.13
2023-05-06T06:06:52.345Z,5.07
2023-05-06T06:09:18.954Z,4.63
2023-05-06T06:11:45.552Z,4.82
2023-05-06T06:14:12.127Z,5.30
2023-05-06T06:16:38.907Z,4.60
2023-05-06T06:19:06.602Z,6.03
2023-05-06T06:21:33.344Z,4.90
2023-05-06T06:24:00.028Z,4.82
2023-05-06T06:26:28.732Z,4.35
2023-05-06T06:28:55.333Z,4.22
2023-05-06T06:31:22.014Z,4.40
2023-05-06T06:33:48.657Z,4.00
2023-05-06T06:36:15.220Z,3.58
2023-05-06T06:38:41.914Z,3.95
2023-05-06T06:41:09.016Z,3.78
2023-05-06T06:43:35.932Z,3.40
2023-05-06T06:46:02.553Z,4.15
2023-05-06T06:48:29.376Z,4.03
2023-05-06T06:50:55.926Z,3.70
2023-05-06T06:53:28.207Z,3.70
2023-05-06T06:55:54.823Z,3.53
2023-05-06T06:58:22.444Z,2.65
2023-05-06T07:00:49.129Z,3.92
2023-05-06T07:03:19.520Z,3.10
2023-05-06T07:05:46.612Z,3.75
2023-05-06T07:08:13.281Z,2.60
2023-05-06T07:10:39.972Z,2.78
2023-05-06T07:13:06.611Z,2.92
2023-05-06T07:15:33.166Z,3.08
2023-05-06T07:17:59.840Z,2.78
2023-05-06T07:20:34.171Z,2.83
2023-05-06T07:23:01.159Z,3.20
2023-05-06T07:25:28.269Z,4.35
2023-05-06T07:27:54.911Z,3.55
2023-05-06T07:30:23.147Z,2.78
2023-05-06T07:32:50.187Z,3.00
2023-05-06T07:35:16.910Z,2.53
2023-05-06T07:37:45.909Z,2.30
2023-05-06T07:40:12.761Z,2.75
2023-05-06T07:42:42.821Z,2.50
2023-05-06T07:45:11.195Z,2.00
2023-05-06T07:47:38.745Z,1.95
2023-05-06T07:50:06.865Z,2.30
2023-05-06T07:52:33.629Z,1.98
2023-05-06T07:55:00.265Z,2.13
2023-05-06T07:57:26.903Z,2.40
2023-05-06T07:59:54.564Z,2.25
2023-05-06T08:02:21.192Z,2.20
2023-05-06T08:04:49.550Z,2.10
2023-05-06T08:07:17.729Z,1.90
2023-05-06T08:09:44.347Z,2.10
2023-05-06T08:12:11.163Z,1.75
2023-05-06T08:14:41.182Z,1.67
2023-05-06T08:17:07.791Z,1.60
2023-05-06T08:19:34.445Z,1.88
2023-05-06T08:22:01.003Z,1.40
2023-05-06T08:24:28.385Z,1.52
2023-05-06T08:26:55.228Z,1.45
2023-05-06T08:29:21.830Z,1.25
2023-05-06T08:31:48.747Z,1.48
2023-05-06T08:34:18.503Z,1.42
2023-05-06T08:36:45.292Z,1.20
2023-05-06T08:39:12.554Z,1.80
2023-05-06T08:41:48.327Z,1.20
2023-05-06T08:44:19.274Z,1.30
2023-05-06T08:46:47.023Z,1.20
2023-05-06T08:49:13.562Z,1.13
2023-05-06T08:51:43.609Z,1.50
2023-05-06T08:54:12.962Z,1.30
2023-05-06T08:56:53.370Z,1.30
2023-05-06T08:59:25.195Z,1.63
2023-05-06T09:01:52.639Z,1.60
2023-05-06T09:04:19.599Z,1.33
2023-05-06T09:06:46.242Z,1.17
2023-05-06T09:09:17.468Z,1.63
2023-05-06T09:11:51.924Z,1.50
2023-05-06T09:14:18.496Z,1.23
2023-05-06T09:16:47.747Z,1.25
2023-05-06T09:19:15.904Z,1.65
2023-05-06T09:21:45.454Z,1.08
2023-05-06T09:24:16.602Z,1.05
2023-05-06T09:26:44.849Z,3.03
2023-05-06T09:29:17.753Z,1.10
2023-05-06T09:31:47.433Z,1.30
2023-05-06T09:34:15.980Z,1.27
2023-05-06T09:36:42.558Z,1.45
2023-05-06T09:39:10.130Z,1.17
2023-05-06T09:41:37.117Z,1.15
2023-05-06T09:44:03.962Z,1.55
2023-05-06T09:46:30.764Z,1.65
2023-05-06T09:48:58.778Z,10.15
2023-05-06T09:51:27.897Z,1.40
2023-05-06T09:53:58.155Z,1.40
2023-05-06T09:56:25.527Z,2.33
2023-05-06T09:58:52.684Z,1.20
2023-05-06T10:01:32.727Z,1.42
2023-05-06T10:04:08.370Z,1.50
2023-05-06T10:06:36.966Z,1.20
2023-05-06T10:09:06.333Z,0.77
2023-05-06T10:11:33.285Z,1.15
2023-05-06T10:14:01.418Z,1.25
2023-05-06T10:16:28.687Z,2.28
2023-05-06T10:18:56.150Z,0.98
2023-05-06T10:21:27.544Z,1.08
2023-05-06T10:24:09.226Z,1.15
2023-05-06T10:26:40.842Z,1.13
2023-05-06T10:29:10.337Z,0.95
2023-05-06T10:31:49.124Z,1.55
2023-05-06T10:34:18.072Z,2.10
2023-05-06T10:36:46.065Z,1.15
2023-05-06T10:39:14.403Z,1.25
2023-05-06T10:41:41.393Z,1.27
2023-05-06T10:44:10.154Z,3.22
2023-05-06T10:47:02.442Z,1.20
2023-05-06T10:49:29.319Z,0.97
2023-05-06T10:52:14.738Z,1.00
2023-05-06T10:54:51.467Z,0.93
2023-05-06T10:57:19.356Z,0.80
2023-05-06T10:59:47.171Z,1.10
2023-05-06T11:02:14.749Z,1.60
2023-05-06T11:04:41.789Z,1.10
2023-05-06T11:07:15.959Z,1.17
2023-05-06T11:10:02.506Z,1.20
2023-05-06T11:12:45.738Z,1.13
2023-05-06T11:15:38.056Z,1.10
2023-05-06T11:18:26.977Z,0.90
2023-05-06T11:21:10.576Z,1.30
2023-05-06T11:24:00.199Z,1.00
2023-05-06T11:26:27.214Z,5.43
2023-05-06T11:28:53.796Z,1.23
2023-05-06T11:31:22.497Z,0.82
2023-05-06T11:33:52.931Z,1.27
2023-05-06T11:36:21.215Z,1.20
2023-05-06T11:38:52.931Z,1.10
2023-05-06T11:41:20.230Z,2.03
2023-05-06T11:43:51.116Z,1.00
2023-05-06T11:46:22.439Z,0.90
2023-05-06T11:48:50.616Z,1.52
2023-05-06T11:51:23.460Z,1.17
2023-05-06T11:53:50.019Z,1.00
2023-05-06T11:56:16.681Z,1.00
2023-05-06T11:58:43.261Z,1.30
2023-05-06T12:01:09.942Z,1.30
2023-05-06T12:03:39.815Z,1.23
2023-05-06T12:06:06.930Z,1.33
2023-05-06T12:08:35.958Z,0.98
2023-05-06T12:11:08.248Z,1.10
2023-05-06T12:13:40.639Z,1.33
2023-05-06T12:18:35.965Z,0.95
2023-05-06T12:21:02.962Z,0.90
2023-05-06T12:23:29.668Z,1.10
2023-05-06T12:26:08.415Z,1.45
2023-05-06T12:28:36.850Z,2.78
2023-05-06T12:31:23.008Z,2.47
2023-05-06T12:33:50.448Z,1.35
2023-05-06T12:36:25.728Z,0.93
2023-05-06T12:38:55.291Z,1.08
2023-05-06T12:41:23.448Z,0.88
2023-05-06T12:43:50.442Z,1.02
2023-05-06T12:46:17.439Z,1.10
2023-05-06T12:49:04.291Z,1.00
2023-05-06T12:51:32.393Z,2.67
2023-05-06T12:53:59.801Z,2.95
2023-05-06T12:56:26.471Z,1.15
2023-05-06T12:59:04.357Z,1.27
2023-05-06T13:01:31.706Z,2.00
2023-05-06T13:03:58.522Z,0.90
2023-05-06T13:06:29.093Z,0.95
2023-05-06T13:08:55.644Z,1.13
2023-05-06T13:11:22.327Z,1.40
2023-05-06T13:13:49.044Z,1.30
2023-05-06T13:16:16.138Z,1.17
2023-05-06T13:18:42.866Z,2.10
2023-05-06T13:21:09.488Z,1.60
2023-05-06T13:23:38.070Z,1.17
2023-05-06T13:26:06.228Z,1.20
2023-05-06T13:28:33.991Z,1.50
2023-05-06T13:31:01.066Z,1.13
2023-05-06T13:33:32.343Z,1.42
2023-05-06T13:35:59.137Z,1.23
2023-05-06T13:38:25.842Z,1.52
2023-05-06T13:40:53.775Z,1.30
2023-05-06T13:43:21.858Z,1.02
2023-05-06T13:45:48.490Z,0.73
2023-05-06T13:48:15.441Z,0.85
2023-05-06T13:50:42.563Z,1.00
2023-05-06T13:53:09.263Z,1.08
2023-05-06T13:55:36.213Z,1.17
2023-05-06T13:58:04.014Z,1.10
2023-05-06T14:00:30.941Z,1.17
2023-05-06T14:05:23.501Z,1.20
2023-05-06T14:07:50.270Z,1.10
2023-05-06T14:10:16.869Z,0.90
2023-05-06T14:12:45.232Z,1.10
2023-05-06T14:15:12.350Z,1.85
2023-05-06T14:17:39.251Z,1.08
2023-05-06T14:20:06.702Z,1.17
2023-05-06T14:22:33.335Z,1.15
2023-05-06T14:25:00.030Z,1.10
2023-05-06T14:27:27.010Z,1.08
2023-05-06T14:29:53.781Z,0.88
2023-05-06T14:32:20.435Z,1.00
2023-05-06T14:34:47.204Z,1.58
2023-05-06T14:37:14.128Z,1.50
2023-05-06T14:39:41.120Z,1.40
2023-05-06T14:42:07.835Z,1.35
2023-05-06T14:44:34.467Z,1.17
2023-05-06T14:47:01.201Z,1.33
2023-05-06T14:49:28.003Z,1.00
2023-05-06T14:51:54.578Z,2.08
2023-05-06T14:54:21.236Z,1.05
2023-05-06T14:56:49.785Z,1.00
2023-05-06T14:59:19.328Z,1.15
2023-05-06T15:01:46.067Z,1.40
2023-05-06T15:04:12.696Z,1.50
2023-05-06T15:06:46.030Z,1.40
2023-05-06T15:11:39.278Z,1.13
2023-05-06T15:14:06.067Z,1.13
2023-05-06T15:16:32.947Z,1.10
2023-05-06T15:18:59.554Z,1.10
2023-05-06T15:21:27.777Z,1.25
2023-05-06T15:23:56.186Z,1.08
2023-05-06T15:26:22.832Z,1.05
2023-05-06T15:28:49.450Z,1.05
2023-05-06T15:31:16.308Z,1.33
2023-05-06T15:33:53.694Z,1.20
2023-05-06T15:36:20.470Z,1.30
2023-05-06T15:38:53.244Z,1.20
2023-05-06T15:41:19.901Z,1.60
2023-05-06T15:43:46.508Z,1.60
2023-05-06T15:46:14.853Z,1.00
2023-05-06T15:48:42.004Z,1.48
2023-05-06T15:51:08.682Z,1.38
2023-05-06T15:53:39.554Z,1.48
2023-05-06T15:56:13.605Z,1.13
2023-05-06T15:58:44.571Z,1.42
2023-05-06T16:01:11.553Z,1.38
2023-05-06T16:03:41.262Z,1.20
2023-05-06T16:06:09.259Z,1.20
2023-05-06T16:08:36.877Z,1.10
2023-05-06T16:11:03.639Z,1.10
2023-05-06T16:13:30.141Z,1.63
2023-05-06T16:15:59.269Z,1.38
2023-05-06T16:18:27.213Z,1.40
2023-05-06T16:20:53.869Z,1.10
2023-05-06T16:23:21.482Z,1.50
2023-05-06T16:25:48.551Z,2.22
2023-05-06T16:28:15.288Z,1.60
2023-05-06T16:30:44.734Z,1.50
2023-05-06T16:33:12.151Z,1.38
2023-05-06T16:35:39.354Z,1.20
2023-05-06T16:38:06.565Z,1.20
2023-05-06T16:40:41.416Z,1.30
2023-05-06T16:43:08.459Z,1.30
2023-05-06T16:45:35.005Z,1.30
2023-05-06T16:48:01.947Z,1.88
2023-05-06T16:50:28.675Z,1.83
2023-05-06T16:52:55.244Z,1.83
2023-05-06T16:55:22.031Z,1.52
2023-05-06T16:57:48.625Z,1.73
2023-05-06T17:00:16.538Z,1.40
2023-05-06T17:02:43.514Z,1.35
2023-05-06T17:05:10.251Z,2.00
2023-05-06T17:07:36.857Z,1.98
2023-05-06T17:10:05.116Z,1.70
2023-05-06T17:12:32.318Z,1.38
2023-05-06T17:14:58.957Z,2.40
2023-05-06T17:17:28.681Z,1.48
2023-05-06T17:19:57.480Z,1.40
2023-05-06T17:22:26.364Z,1.48
2023-05-06T17:24:53.176Z,1.08
2023-05-06T17:27:19.750Z,1.20
2023-05-06T17:29:46.741Z,1.27
2023-05-06T17:32:13.545Z,1.60
2023-05-06T17:34:40.277Z,1.20
2023-05-06T17:37:11.358Z,1.17
2023-05-06T17:39:38.486Z,1.20
2023-05-06T17:42:05.288Z,1.60
2023-05-06T17:44:32.978Z,1.73
2023-05-06T17:46:59.916Z,1.70
2023-05-06T17:49:27.024Z,1.50
2023-05-06T17:51:54.059Z,1.30
2023-05-06T17:54:20.820Z,1.08
2023-05-06T17:56:50.572Z,2.05
2023-05-06T17:59:19.136Z,1.15
2023-05-06T18:01:46.103Z,1.38
2023-05-06T18:04:16.491Z,1.33
2023-05-06T18:06:44.260Z,1.20
2023-05-06T18:09:10.942Z,1.40
2023-05-06T18:11:38.853Z,1.20
2023-05-06T18:14:06.456Z,1.25
2023-05-06T18:16:33.289Z,1.63
2023-05-06T18:19:02.761Z,1.50
2023-05-06T18:21:29.608Z,1.20
2023-05-06T18:24:02.413Z,1.60
2023-05-06T18:26:45.470Z,2.20
2023-05-06T18:29:12.996Z,1.70
2023-05-06T18:31:39.798Z,1.48
2023-05-06T18:34:06.644Z,1.35
2023-05-06T18:36:35.170Z,1.73
2023-05-06T18:39:02.624Z,1.83
2023-05-06T18:41:31.218Z,1.73
2023-05-06T18:44:01.716Z,2.13
2023-05-06T18:46:29.189Z,2.15
2023-05-06T18:48:56.139Z,1.80
2023-05-06T18:51:22.822Z,1.90
2023-05-06T18:53:49.818Z,2.20
2023-05-06T18:56:17.152Z,2.05
2023-05-06T18:58:43.952Z,1.95
2023-05-06T19:01:11.329Z,2.50
2023-05-06T19:03:38.541Z,2.30
2023-05-06T19:06:10.824Z,2.65
2023-05-06T19:08:37.826Z,2.60
2023-05-06T19:11:04.772Z,3.13
2023-05-06T19:13:34.609Z,2.90
2023-05-06T19:18:41.703Z,3.42
2023-05-06T19:21:12.812Z,3.30
2023-05-06T19:23:39.608Z,3.60
2023-05-06T19:26:07.133Z,4.00
2023-05-06T19:28:35.264Z,4.65
2023-05-06T19:31:09.798Z,4.63
2023-05-06T19:33:38.151Z,5.38
2023-05-06T19:36:05.247Z,5.50
2023-05-06T19:38:32.275Z,5.22
2023-05-06T19:40:58.989Z,5.95
2023-05-06T19:43:26.322Z,6.60
2023-05-06T19:45:53.018Z,5.95
2023-05-06T19:48:19.913Z,7.18
2023-05-06T19:50:46.986Z,6.90
2023-05-06T19:53:13.556Z,7.60
2023-05-06T19:55:44.688Z,7.85
2023-05-06T19:58:11.712Z,8.50
2023-05-06T20:00:38.813Z,8.90
2023-05-06T20:03:05.736Z,9.48
2023-05-06T20:05:32.461Z,9.73
2023-05-06T20:08:00.448Z,10.98
2023-05-06T20:10:28.486Z,10.73
2023-05-06T20:12:57.901Z,10.68
2023-05-06T20:15:26.642Z,10.52
2023-05-06T20:17:53.543Z,10.85
2023-05-06T20:20:20.572Z,11.02
2023-05-06T20:22:47.519Z,11.48
2023-05-06T20:25:18.867Z,11.32
2023-05-06T20:27:45.894Z,11.88
2023-05-06T20:30:12.800Z,12.35
2023-05-06T20:32:40.750Z,12.68
2023-05-06T20:35:08.057Z,13.63
2023-05-06T20:37:36.232Z,13.15
2023-05-06T20:40:05.747Z,13.15
2023-05-06T20:42:32.402Z,13.88
2023-05-06T20:44:59.394Z,13.52
2023-05-06T20:47:26.894Z,14.20
2023-05-06T20:49:54.313Z,14.10
2023-05-06T20:52:22.135Z,13.90
2023-05-06T20:54:49.228Z,13.40
2023-05-06T20:57:17.849Z,14.30
2023-05-06T20:59:44.544Z,14.00
2023-05-06T21:02:11.577Z,15.23
2023-05-06T21:04:38.711Z,14.25
2023-05-06T21:07:05.645Z,14.65
2023-05-06T21:09:32.510Z,14.43
2023-05-06T21:11:59.237Z,13.52
2023-05-06T21:14:26.731Z,13.52
2023-05-06T21:16:53.905Z,14.45
2023-05-06T21:19:21.005Z,15.43
2023-05-06T21:21:47.759Z,14.02
2023-05-06T21:24:14.373Z,13.40
2023-05-06T21:26:41.189Z,13.98
2023-05-06T21:29:07.845Z,14.68
2023-05-06T21:31:34.793Z,13.88
2023-05-06T21:34:01.464Z,15.05
2023-05-06T21:36:28.026Z,15.07
2023-05-06T21:39:21.058Z,14.48
2023-05-06T21:41:47.742Z,15.20
2023-05-06T21:44:14.378Z,16.30
2023-05-06T21:46:41.348Z,14.98
2023-05-06T21:49:07.966Z,16.48
2023-05-06T21:51:35.481Z,17.63
2023-05-06T21:54:02.885Z,17.60
2023-05-06T21:56:29.851Z,17.77
2023-05-06T21:58:56.706Z,18.30
2023-05-06T22:01:26.333Z,18.58
2023-05-06T22:03:54.257Z,18.75
2023-05-06T22:06:21.587Z,18.48
2023-05-06T22:08:48.321Z,18.80
2023-05-06T22:11:15.303Z,19.27
2023-05-06T22:13:41.916Z,19.40
2023-05-06T22:16:08.674Z,21.63
2023-05-06T22:18:36.145Z,21.70
2023-05-06T22:21:03.390Z,22.00
2023-05-06T22:23:30.115Z,24.35
2023-05-06T22:25:58.601Z,23.40
2023-05-06T22:28:26.424Z,23.92
2023-05-06T22:30:53.007Z,24.73
2023-05-06T22:33:19.616Z,24.30
2023-05-06T22:35:46.608Z,23.90
2023-05-06T22:38:13.346Z,26.42
2023-05-06T22:40:39.923Z,25.85
2023-05-06T22:43:06.541Z,25.85
2023-05-06T22:45:33.165Z,25.83
2023-05-06T22:47:59.955Z,25.33
2023-05-06T22:50:27.305Z,27.17
2023-05-06T22:52:53.988Z,26.17
2023-05-06T22:55:20.972Z,24.73
2023-05-06T22:57:50.123Z,25.42
2023-05-06T23:00:17.514Z,26.15
2023-05-06T23:02:44.335Z,25.73
2023-05-06T23:05:11.780Z,24.30
2023-05-06T23:07:38.886Z,26.70
2023-05-06T23:10:06.223Z,25.77
2023-05-06T23:12:34.105Z,25.88
2023-05-06T23:15:01.279Z,26.60
2023-05-06T23:17:28.074Z,25.25
2023-05-06T23:19:54.794Z,27.17
2023-05-06T23:22:21.571Z,26.55
2023-05-06T23:24:48.315Z,25.25
2023-05-06T23:27:14.922Z,25.55
2023-05-06T23:29:41.468Z,26.52
2023-05-06T23:32:08.963Z,25.67
2023-05-06T23:34:35.551Z,25.27
2023-05-06T23:37:02.094Z,26.98
2023-05-06T23:39:28.607Z,25.25
2023-05-06T23:41:55.310Z,27.00
2023-05-06T23:44:23.144Z,29.55
2023-05-06T23:46:49.973Z,29.15
2023-05-06T23:49:16.657Z,29.13
2023-05-06T23:51:43.237Z,27.88
2023-05-06T23:54:12.566Z,29.98
2023-05-06T23:56:39.716Z,29.77
2023-05-06T23:59:06.273Z,29.23
